Time;durP1;ratioP1;P1;durP2;ratioP2;P2;SDS_P1;SDS_P2;PMS_P1;PMS_P2;Temp;Humidity;BMP_temperature;BMP_pressure;BME280_temperature;BME280_humidity;BME280_pressure;Samples;Min_cycle;Max_cycle;Signal;HPM_P1;HPM_P2
2022/03/21 00:01:11;;;;;;;17.93;12.97;;;6.80;99.90;;;;;;5029926;28;20260;-31
2022/03/21 00:03:37;;;;;;;18.23;12.90;;;6.60;99.90;;;;;;5029663;28;20207;-31
2022/03/21 00:06:03;;;;;;;19.60;12.67;;;6.40;99.90;;;;;;5013424;28;20243;-32
2022/03/21 00:08:30;;;;;;;19.23;13.60;;;6.30;99.90;;;;;;5013248;28;20199;-33
2022/03/21 00:10:57;;;;;;;20.93;14.00;;;6.30;99.90;;;;;;5028737;28;20184;-32
2022/03/21 00:13:24;;;;;;;20.97;14.47;;;6.20;99.90;;;;;;5029749;28;20245;-31
2022/03/21 00:15:52;;;;;;;22.20;14.80;;;5.90;99.90;;;;;;5029572;28;20198;-31
2022/03/21 00:18:20;;;;;;;22.53;14.57;;;5.70;99.90;;;;;;5029743;28;20306;-31
2022/03/21 00:20:49;;;;;;;21.80;14.57;;;5.60;99.90;;;;;;5030626;28;20189;-31
2022/03/21 00:23:15;;;;;;;21.50;14.50;;;5.60;99.90;;;;;;5013414;28;20182;-31
2022/03/21 00:25:42;;;;;;;20.53;14.17;;;5.30;99.90;;;;;;5013072;28;20281;-31
2022/03/21 00:28:09;;;;;;;24.97;14.70;;;5.30;99.90;;;;;;5012852;28;20225;-31
2022/03/21 00:30:36;;;;;;;26.27;16.67;;;5.10;99.90;;;;;;5029174;28;20202;-31
2022/03/21 00:33:02;;;;;;;25.00;16.43;;;5.20;99.90;;;;;;5029351;28;20218;-32
2022/03/21 00:35:29;;;;;;;22.13;15.07;;;5.10;99.90;;;;;;5031620;28;20274;-32
2022/03/21 00:37:56;;;;;;;24.27;15.93;;;5.30;99.90;;;;;;5016759;28;20179;-32
2022/03/21 00:40:24;;;;;;;22.93;15.43;;;5.30;99.90;;;;;;5016402;28;20202;-32
2022/03/21 00:42:51;;;;;;;23.90;15.70;;;5.40;99.90;;;;;;5032262;28;20205;-32
2022/03/21 00:45:24;;;;;;;24.97;16.47;;;5.30;99.90;;;;;;5033338;28;20193;-32
2022/03/21 00:47:51;;;;;;;23.03;15.87;;;5.10;99.90;;;;;;5033224;28;20191;-32
2022/03/21 00:50:19;;;;;;;20.63;14.70;;;5.00;99.90;;;;;;5034226;28;20199;-32
2022/03/21 00:52:48;;;;;;;22.20;14.87;;;5.10;99.90;;;;;;5016359;28;20289;-32
2022/03/21 00:55:16;;;;;;;21.23;14.47;;;5.10;99.90;;;;;;5032969;28;20268;-32
2022/03/21 00:57:43;;;;;;;23.80;14.57;;;5.10;99.90;;;;;;5033213;28;20198;-31
2022/03/21 01:00:12;;;;;;;23.80;14.93;;;5.00;99.90;;;;;;5032623;28;20286;-31
2022/03/21 01:02:39;;;;;;;22.60;14.87;;;5.00;99.90;;;;;;5032828;28;20665;-31
2022/03/21 01:05:06;;;;;;;21.73;14.77;;;5.10;99.90;;;;;;5016519;28;20332;-30
2022/03/21 01:07:33;;;;;;;23.23;15.20;;;5.20;99.90;;;;;;5016287;28;20195;-31
2022/03/21 01:09:59;;;;;;;22.33;14.63;;;5.20;99.90;;;;;;5032251;28;20249;-30
2022/03/21 01:12:26;;;;;;;20.50;14.30;;;5.00;99.90;;;;;;5032788;28;20298;-30
2022/03/21 01:14:52;;;;;;;23.33;15.13;;;4.90;99.90;;;;;;5016121;28;20179;-31
2022/03/21 01:17:18;;;;;;;22.97;14.37;;;4.90;99.90;;;;;;5032594;28;20221;-31
2022/03/21 01:19:44;;;;;;;20.57;13.73;;;4.70;99.90;;;;;;5032203;28;20289;-30
2022/03/21 01:22:10;;;;;;;19.20;13.23;;;4.60;99.90;;;;;;5015947;28;20550;-31
2022/03/21 01:24:38;;;;;;;21.33;13.97;;;4.30;99.90;;;;;;5032526;28;20665;-30
2022/03/21 01:27:05;;;;;;;21.93;14.10;;;4.00;99.90;;;;;;5032435;28;20190;-31
2022/03/21 01:29:31;;;;;;;23.40;14.97;;;3.80;99.90;;;;;;5032076;28;20210;-31
2022/03/21 01:31:57;;;;;;;21.87;14.57;;;3.60;99.90;;;;;;5032382;28;20190;-31
2022/03/21 01:34:23;;;;;;;24.73;14.63;;;3.60;99.90;;;;;;5032162;28;20214;-31
2022/03/21 01:36:49;;;;;;;21.63;13.70;;;3.60;99.90;;;;;;5015745;28;20217;-30
2022/03/21 01:39:15;;;;;;;22.73;14.87;;;3.70;99.90;;;;;;5032242;28;20227;-30
2022/03/21 01:41:41;;;;;;;24.73;15.27;;;3.90;99.90;;;;;;5032442;28;20245;-30
2022/03/21 01:44:09;;;;;;;22.20;14.77;;;3.90;99.90;;;;;;5032151;28;20190;-30
2022/03/21 01:46:36;;;;;;;22.67;14.97;;;4.10;99.90;;;;;;5032010;28;20186;-31
2022/03/21 01:49:04;;;;;;;26.03;14.70;;;4.20;99.90;;;;;;5031896;28;20198;-32
2022/03/21 01:51:32;;;;;;;19.20;13.83;;;4.30;99.90;;;;;;5031494;28;20179;-30
2022/03/21 01:56:45;;;;;;;23.73;15.20;;;4.40;99.90;;;;;;5031946;28;20329;-30
2022/03/21 01:59:12;;;;;;;25.63;15.33;;;4.40;99.90;;;;;;5015304;28;20679;-31
2022/03/21 02:01:39;;;;;;;26.13;16.53;;;4.40;99.90;;;;;;5031849;28;20182;-30
2022/03/21 02:04:05;;;;;;;30.50;16.73;;;4.40;99.90;;;;;;5033133;28;20713;-32
2022/03/21 02:06:32;;;;;;;31.50;16.93;;;4.40;99.90;;;;;;5031871;28;20191;-31
2022/03/21 02:09:00;;;;;;;31.67;18.40;;;4.40;99.90;;;;;;5031472;28;20206;-31
2022/03/21 02:11:27;;;;;;;28.03;16.50;;;4.50;99.90;;;;;;5031437;28;20270;-32
2022/03/21 02:13:58;;;;;;;27.17;15.53;;;4.40;99.90;;;;;;5015004;28;20301;-32
2022/03/21 02:16:26;;;;;;;24.87;16.17;;;4.40;99.90;;;;;;5031782;28;20175;-31
2022/03/21 02:18:53;;;;;;;21.87;14.33;;;4.30;99.90;;;;;;5014898;28;20203;-31
2022/03/21 02:21:44;;;;;;;27.17;16.23;;;4.20;99.90;;;;;;5014475;28;20182;-32
2022/03/21 02:24:18;;;;;;;26.80;15.57;;;4.10;99.90;;;;;;5001758;28;20194;-32
2022/03/21 02:26:45;;;;;;;21.40;13.73;;;4.00;99.90;;;;;;5032662;28;20261;-32
2022/03/21 02:29:13;;;;;;;21.53;14.70;;;4.00;99.90;;;;;;5014162;28;20349;-31
2022/03/21 02:31:39;;;;;;;21.93;14.80;;;3.90;99.90;;;;;;5013921;28;20171;-30
2022/03/21 02:34:05;;;;;;;25.20;15.23;;;3.80;99.90;;;;;;5029987;28;20206;-31
2022/03/21 02:36:32;;;;;;;22.37;14.53;;;3.50;99.90;;;;;;5030301;28;20166;-32
2022/03/21 02:38:59;;;;;;;23.40;15.20;;;3.40;99.90;;;;;;5013456;28;20199;-32
2022/03/21 02:41:25;;;;;;;22.73;15.27;;;3.20;99.90;;;;;;5029936;28;20202;-32
2022/03/21 02:43:55;;;;;;;25.33;15.30;;;3.00;99.90;;;;;;5031029;28;20646;-32
2022/03/21 02:46:22;;;;;;;28.30;16.20;;;3.00;99.90;;;;;;5030102;28;20188;-32
2022/03/21 02:48:49;;;;;;;23.10;14.17;;;2.90;99.90;;;;;;5013460;28;20201;-32
2022/03/21 02:51:17;;;;;;;26.30;15.47;;;2.90;99.90;;;;;;5031528;28;20186;-32
2022/03/21 02:53:45;;;;;;;21.43;14.17;;;2.80;99.90;;;;;;5030077;28;20210;-32
2022/03/21 02:56:11;;;;;;;23.40;15.50;;;2.80;99.90;;;;;;5031332;28;20206;-32
2022/03/21 02:58:37;;;;;;;23.20;14.63;;;3.00;99.90;;;;;;5029813;28;20225;-32
2022/03/21 03:01:21;;;;;;;21.83;13.93;;;3.10;99.90;;;;;;5030174;28;20171;-32
2022/03/21 03:03:47;;;;;;;22.90;14.90;;;3.30;99.90;;;;;;5030206;28;20178;-32
2022/03/21 03:06:13;;;;;;;23.03;15.50;;;3.40;99.90;;;;;;5013454;28;20193;-32
2022/03/21 03:08:41;;;;;;;24.60;14.53;;;3.40;99.90;;;;;;5030006;28;20332;-31
2022/03/21 03:11:07;;;;;;;20.77;14.87;;;3.40;99.90;;;;;;5013364;28;20178;-33
2022/03/21 03:13:33;;;;;;;21.67;14.83;;;3.40;99.90;;;;;;5028850;28;20210;-31
2022/03/21 03:15:59;;;;;;;23.17;14.97;;;3.20;99.90;;;;;;5013003;28;20182;-32
2022/03/21 03:18:25;;;;;;;22.83;15.10;;;3.00;99.90;;;;;;5031073;28;20181;-32
2022/03/21 03:20:53;;;;;;;22.80;14.70;;;3.10;99.90;;;;;;5012894;28;20206;-31
2022/03/21 03:23:22;;;;;;;22.40;14.80;;;3.20;99.90;;;;;;5012992;28;20186;-32
2022/03/21 03:25:52;;;;;;;21.63;13.63;;;3.20;99.90;;;;;;5029439;28;20706;-31
2022/03/21 03:28:18;;;;;;;21.73;14.50;;;3.20;99.90;;;;;;5030519;28;20182;-32
2022/03/21 03:30:44;;;;;;;22.53;15.17;;;3.30;99.90;;;;;;4973196;28;1156958;-32
2022/03/21 03:33:10;;;;;;;24.03;14.73;;;3.30;99.90;;;;;;5030081;28;20267;-32
2022/03/21 03:35:36;;;;;;;22.17;14.47;;;3.30;99.90;;;;;;5013629;28;20221;-31
2022/03/21 03:38:03;;;;;;;19.50;14.40;;;3.20;99.90;;;;;;5030223;28;20290;-32
2022/03/21 03:40:29;;;;;;;24.00;14.90;;;3.00;99.90;;;;;;5013398;28;20194;-32
2022/03/21 03:42:55;;;;;;;24.03;15.23;;;3.00;99.90;;;;;;5031180;28;20175;-32
2022/03/21 03:45:20;;;;;;;21.90;14.60;;;3.00;99.90;;;;;;5029996;28;20189;-31
2022/03/21 03:47:46;;;;;;;21.97;13.90;;;2.90;99.90;;;;;;5013694;28;20186;-31
2022/03/21 03:50:13;;;;;;;23.10;15.00;;;2.90;99.90;;;;;;5029860;28;20208;-31
2022/03/21 03:52:40;;;;;;;24.57;15.70;;;2.80;99.90;;;;;;5029941;28;20228;-31
2022/03/21 03:55:07;;;;;;;22.80;14.50;;;2.80;99.90;;;;;;5013496;28;20178;-31
2022/03/21 03:57:33;;;;;;;24.03;15.57;;;2.80;99.90;;;;;;5013126;28;20707;-31
2022/03/21 03:59:59;;;;;;;21.83;14.70;;;2.80;99.90;;;;;;5012331;28;20302;-31
2022/03/21 04:02:25;;;;;;;23.73;15.17;;;2.90;99.90;;;;;;5013206;28;20188;-31
2022/03/21 04:04:51;;;;;;;24.20;15.50;;;3.10;99.90;;;;;;5029828;28;20174;-31
2022/03/21 04:07:19;;;;;;;24.60;15.20;;;3.10;99.90;;;;;;5013419;28;20182;-31
2022/03/21 04:09:45;;;;;;;24.77;15.17;;;3.20;99.90;;;;;;5028575;28;20199;-31
2022/03/21 04:12:11;;;;;;;22.03;14.83;;;3.30;99.90;;;;;;5012904;28;20638;-31
2022/03/21 04:14:37;;;;;;;23.03;14.83;;;3.30;99.90;;;;;;5029518;28;20233;-31
2022/03/21 04:17:03;;;;;;;23.23;15.07;;;3.30;99.90;;;;;;5029875;28;20167;-31
2022/03/21 04:19:29;;;;;;;24.93;15.37;;;3.40;99.90;;;;;;5029149;28;20304;-31
2022/03/21 04:21:54;;;;;;;21.07;14.60;;;3.40;99.90;;;;;;5029724;28;20262;-31
2022/03/21 04:24:20;;;;;;;22.97;15.57;;;3.40;99.90;;;;;;5029548;28;20236;-31
2022/03/21 04:26:46;;;;;;;23.00;15.00;;;3.30;99.90;;;;;;5029396;28;20181;-31
2022/03/21 04:29:12;;;;;;;22.80;15.23;;;3.30;99.90;;;;;;5020117;28;20693;-31
2022/03/21 04:31:37;;;;;;;23.27;14.30;;;3.10;99.90;;;;;;4998000;28;20188;-31
2022/03/21 04:34:03;;;;;;;22.17;14.60;;;2.90;99.90;;;;;;5018607;28;20203;-31
2022/03/21 04:36:29;;;;;;;23.40;13.83;;;2.70;99.90;;;;;;5010164;28;20182;-31
2022/03/21 04:38:55;;;;;;;20.90;14.20;;;2.60;99.90;;;;;;5028897;28;20226;-31
2022/03/21 04:41:21;;;;;;;22.17;14.83;;;2.50;99.90;;;;;;5028682;28;20213;-31
2022/03/21 04:43:47;;;;;;;22.17;13.60;;;2.50;99.90;;;;;;5028435;28;20240;-31
2022/03/21 04:46:13;;;;;;;21.63;14.73;;;2.40;99.90;;;;;;5012804;28;20191;-31
2022/03/21 04:48:39;;;;;;;23.33;15.17;;;2.40;99.90;;;;;;5029172;28;20192;-30
2022/03/21 04:51:05;;;;;;;23.77;15.43;;;2.50;99.90;;;;;;5012916;28;20185;-32
2022/03/21 04:53:32;;;;;;;23.13;15.03;;;2.50;99.90;;;;;;5029101;28;20210;-32
2022/03/21 04:55:57;;;;;;;25.57;15.83;;;2.40;99.90;;;;;;5028856;28;20193;-32
2022/03/21 04:58:23;;;;;;;20.70;14.27;;;2.40;99.90;;;;;;5026818;28;20183;-32
2022/03/21 05:00:49;;;;;;;22.10;14.23;;;2.30;99.90;;;;;;5009182;28;20183;-32
2022/03/21 05:03:15;;;;;;;21.77;14.27;;;2.10;99.90;;;;;;4992916;28;20202;-31
2022/03/21 05:05:41;;;;;;;24.37;15.07;;;2.00;99.90;;;;;;4992619;28;20205;-32
2022/03/21 05:08:07;;;;;;;22.10;14.23;;;1.90;99.90;;;;;;4992977;28;20185;-32
2022/03/21 05:10:34;;;;;;;23.53;15.47;;;1.80;99.90;;;;;;4992761;28;20217;-32
2022/03/21 05:13:00;;;;;;;23.47;15.60;;;1.90;99.90;;;;;;5009548;28;20216;-32
2022/03/21 05:15:26;;;;;;;21.63;14.10;;;2.00;99.90;;;;;;5009367;28;20235;-32
2022/03/21 05:17:52;;;;;;;23.53;15.03;;;2.00;99.90;;;;;;4992899;28;20274;-31
2022/03/21 05:20:18;;;;;;;22.37;15.40;;;2.10;99.90;;;;;;4993296;28;20191;-32
2022/03/21 05:30:57;;;;;;;28.23;15.97;;;2.20;99.90;;;;;;5013516;28;20581;-32
2022/03/21 05:31:06;;;;;;;22.53;14.80;;;2.40;99.90;;;;;;5035996;28;20193;-32
2022/03/21 05:36:18;;;;;;;23.20;14.93;;;2.30;99.90;;;;;;5032327;28;20192;-31
2022/03/21 05:38:44;;;;;;;24.80;15.67;;;2.30;99.90;;;;;;5033617;28;20200;-32
2022/03/21 05:41:11;;;;;;;24.37;15.60;;;2.20;99.90;;;;;;5033432;28;20170;-31
2022/03/21 05:43:37;;;;;;;24.27;15.50;;;2.20;99.90;;;;;;5010183;28;20192;-31
2022/03/21 05:46:04;;;;;;;25.50;15.57;;;2.30;99.90;;;;;;5022670;28;20178;-32
2022/03/21 05:51:16;;;;;;;22.77;15.53;;;2.40;99.90;;;;;;5025534;28;20174;-31
2022/03/21 05:53:44;;;;;;;27.77;15.40;;;2.40;99.90;;;;;;5006152;28;20199;-32
2022/03/21 05:56:11;;;;;;;27.20;16.67;;;2.50;99.90;;;;;;5021687;28;20181;-31
2022/03/21 05:58:36;;;;;;;28.10;16.20;;;2.40;99.90;;;;;;5018953;28;20275;-32
2022/03/21 06:01:03;;;;;;;27.27;15.83;;;2.40;99.90;;;;;;5013723;28;20182;-32
2022/03/21 06:03:29;;;;;;;26.97;16.57;;;2.40;99.90;;;;;;5031909;28;20198;-32
2022/03/21 06:06:11;;;;;;;24.37;15.83;;;2.40;99.90;;;;;;5032271;28;20232;-32
2022/03/21 06:08:37;;;;;;;25.77;16.40;;;2.40;99.90;;;;;;5016951;28;20206;-31
2022/03/21 06:11:08;;;;;;;30.73;18.77;;;2.40;99.90;;;;;;5031356;28;20192;-31
2022/03/21 06:13:39;;;;;;;28.23;19.47;;;2.50;99.90;;;;;;5015031;28;20209;-31
2022/03/21 06:16:06;;;;;;;30.97;19.33;;;2.50;99.90;;;;;;5015088;28;20555;-31
2022/03/21 06:18:33;;;;;;;24.37;16.20;;;2.50;99.90;;;;;;5031489;28;20202;-31
2022/03/21 06:21:00;;;;;;;25.13;15.90;;;2.50;99.90;;;;;;5014739;28;20265;-31
2022/03/21 06:23:27;;;;;;;24.77;15.90;;;2.50;99.90;;;;;;5014654;28;20280;-31
2022/03/21 06:25:54;;;;;;;33.67;21.03;;;2.40;99.90;;;;;;5014789;28;20288;-31
2022/03/21 06:28:21;;;;;;;32.70;19.97;;;2.40;99.90;;;;;;5031381;28;20198;-31
2022/03/21 06:30:47;;;;;;;27.83;17.20;;;2.20;99.90;;;;;;5030963;28;20248;-32
2022/03/21 06:33:13;;;;;;;27.20;17.27;;;2.20;99.90;;;;;;5030260;28;20206;-31
2022/03/21 06:35:39;;;;;;;26.83;17.30;;;2.20;99.90;;;;;;5031455;28;20181;-31
2022/03/21 06:38:06;;;;;;;30.67;16.63;;;2.20;99.90;;;;;;5032514;28;20167;-31
2022/03/21 06:40:31;;;;;;;28.97;17.90;;;2.30;99.90;;;;;;5014147;28;20602;-31
2022/03/21 06:42:57;;;;;;;28.07;17.80;;;2.40;99.90;;;;;;5031184;28;20182;-31
2022/03/21 06:45:23;;;;;;;27.80;17.77;;;2.40;99.90;;;;;;5031052;28;20201;-31
2022/03/21 06:47:49;;;;;;;28.07;17.27;;;2.50;99.90;;;;;;5014468;28;20183;-31
2022/03/21 06:50:14;;;;;;;26.67;16.23;;;2.70;99.90;;;;;;5030072;28;20205;-31
2022/03/21 06:52:40;;;;;;;24.97;16.97;;;2.90;99.90;;;;;;5014273;28;20214;-32
2022/03/21 06:55:08;;;;;;;32.37;17.43;;;3.00;99.90;;;;;;5014236;28;20222;-31
2022/03/21 06:57:34;;;;;;;25.80;16.73;;;3.20;99.90;;;;;;5014312;28;20202;-31
2022/03/21 07:00:01;;;;;;;28.17;18.20;;;3.30;99.90;;;;;;5013820;28;20277;-31
2022/03/21 07:02:28;;;;;;;26.63;18.10;;;3.40;99.90;;;;;;5014334;28;20651;-31
2022/03/21 07:04:54;;;;;;;28.70;17.70;;;3.40;99.90;;;;;;5030252;28;20321;-31
2022/03/21 07:07:21;;;;;;;26.30;16.90;;;3.40;99.90;;;;;;5030464;28;20201;-31
2022/03/21 07:09:47;;;;;;;26.97;17.67;;;3.30;99.90;;;;;;5030299;28;20190;-31
2022/03/21 07:12:12;;;;;;;25.50;17.00;;;3.50;99.90;;;;;;5030708;28;20196;-31
2022/03/21 07:14:38;;;;;;;28.70;19.20;;;3.70;99.90;;;;;;5030547;28;20285;-32
2022/03/21 07:17:04;;;;;;;32.13;20.13;;;3.80;99.90;;;;;;5014108;28;20179;-31
2022/03/21 07:19:30;;;;;;;26.53;18.70;;;3.90;99.90;;;;;;5030782;28;20198;-31
2022/03/21 07:21:56;;;;;;;24.87;17.13;;;4.00;99.90;;;;;;5030404;28;20189;-32
2022/03/21 07:24:22;;;;;;;27.83;18.50;;;4.10;99.90;;;;;;5030066;28;20191;-31
2022/03/21 07:26:48;;;;;;;26.70;18.03;;;4.20;99.90;;;;;;5030091;28;20181;-31
2022/03/21 07:29:14;;;;;;;26.93;17.60;;;4.40;99.90;;;;;;5031206;28;20233;-32
2022/03/21 07:31:39;;;;;;;25.70;17.87;;;4.60;99.90;;;;;;5030355;28;20193;-31
2022/03/21 07:34:07;;;;;;;24.50;17.30;;;4.80;99.90;;;;;;5029924;28;20313;-31
2022/03/21 07:36:34;;;;;;;26.87;17.23;;;4.90;99.90;;;;;;5029917;28;20174;-31
2022/03/21 07:39:00;;;;;;;26.17;16.37;;;5.10;99.90;;;;;;5029812;28;20190;-32
2022/03/21 07:41:27;;;;;;;28.37;16.70;;;5.20;99.90;;;;;;5013742;28;20270;-31
2022/03/21 07:43:57;;;;;;;25.87;17.07;;;5.30;99.90;;;;;;5013415;28;20186;-32
2022/03/21 07:49:29;;;;;;;23.10;16.57;;;5.40;99.90;;;;;;4972672;28;20299;-31
2022/03/21 07:51:55;;;;;;;24.43;16.93;;;5.50;99.90;;;;;;4989467;28;20262;-31
2022/03/21 07:54:21;;;;;;;24.40;16.83;;;5.60;99.90;;;;;;4991738;28;20226;-31
2022/03/21 07:56:47;;;;;;;23.93;17.33;;;5.80;99.90;;;;;;5030068;28;20264;-32
2022/03/21 07:59:13;;;;;;;25.87;17.27;;;5.90;99.90;;;;;;5029291;28;20234;-32
2022/03/21 08:01:39;;;;;;;26.17;17.77;;;6.00;99.90;;;;;;5029769;28;20207;-31
2022/03/21 08:04:05;;;;;;;22.73;16.43;;;6.20;99.90;;;;;;5029538;28;20177;-31
2022/03/21 08:06:31;;;;;;;22.80;16.30;;;6.40;99.90;;;;;;5031012;28;20200;-32
2022/03/21 08:08:57;;;;;;;23.87;16.73;;;6.60;99.90;;;;;;5029411;28;20680;-32
2022/03/21 08:11:23;;;;;;;24.43;16.93;;;6.80;99.90;;;;;;5030604;28;20226;-32
2022/03/21 08:13:52;;;;;;;23.03;16.43;;;7.00;99.90;;;;;;5029584;28;20211;-33
2022/03/21 08:16:20;;;;;;;22.93;16.03;;;7.20;99.90;;;;;;5029694;28;20186;-33
2022/03/21 08:18:51;;;;;;;21.57;15.57;;;7.40;99.90;;;;;;5029346;28;20252;-32
2022/03/21 08:21:17;;;;;;;24.10;16.67;;;7.60;99.90;;;;;;5031124;28;20260;-32
2022/03/21 08:23:43;;;;;;;24.23;17.67;;;7.80;99.90;;;;;;5029671;28;20220;-32
2022/03/21 08:26:13;;;;;;;26.10;17.67;;;7.90;99.90;;;;;;5032675;28;20225;-33
2022/03/21 08:28:39;;;;;;;27.03;17.90;;;8.10;99.90;;;;;;5015378;28;20662;-32
2022/03/21 08:31:07;;;;;;;24.00;17.23;;;8.20;99.90;;;;;;5012168;28;20194;-33
2022/03/21 08:33:33;;;;;;;23.93;16.57;;;8.40;99.90;;;;;;5020649;28;20208;-32
2022/03/21 08:35:59;;;;;;;22.20;16.17;;;8.60;99.90;;;;;;5020460;28;20180;-32
2022/03/21 08:38:26;;;;;;;23.67;16.77;;;8.80;99.90;;;;;;5011904;28;20179;-33
2022/03/21 08:40:52;;;;;;;22.23;16.30;;;8.90;99.90;;;;;;5029580;28;20178;-33
2022/03/21 08:43:19;;;;;;;23.63;16.83;;;8.90;99.90;;;;;;5028962;28;20671;-33
2022/03/21 08:45:47;;;;;;;25.20;17.07;;;9.00;99.90;;;;;;5027382;28;20183;-32
2022/03/21 08:48:13;;;;;;;21.20;16.53;;;9.10;99.90;;;;;;5028451;28;20186;-33
2022/03/21 08:50:39;;;;;;;23.17;16.03;;;9.20;99.90;;;;;;5011710;28;20187;-33
2022/03/21 08:53:05;;;;;;;22.10;16.27;;;9.40;99.90;;;;;;5012489;28;20204;-33
2022/03/21 08:55:31;;;;;;;26.37;16.70;;;9.60;99.90;;;;;;5031115;28;20166;-33
2022/03/21 08:57:57;;;;;;;21.43;16.33;;;9.60;99.90;;;;;;5032926;28;20206;-32
2022/03/21 09:00:22;;;;;;;21.20;15.80;;;9.70;99.90;;;;;;5034035;28;20198;-32
2022/03/21 09:02:54;;;;;;;20.60;15.27;;;9.80;99.90;;;;;;5032623;28;20591;-32
2022/03/21 09:05:21;;;;;;;20.30;15.37;;;10.00;99.90;;;;;;5032825;28;20186;-33
2022/03/21 09:07:47;;;;;;;23.73;17.20;;;10.20;99.90;;;;;;5032850;28;20551;-32
2022/03/21 09:10:14;;;;;;;20.73;15.80;;;10.30;99.90;;;;;;5015879;28;20621;-33
2022/03/21 09:12:43;;;;;;;22.53;17.10;;;10.40;99.90;;;;;;5032617;28;20179;-33
2022/03/21 09:15:09;;;;;;;21.13;15.97;;;10.50;99.90;;;;;;5032429;28;20183;-33
2022/03/21 09:17:38;;;;;;;21.03;15.93;;;10.70;99.90;;;;;;5016294;28;20647;-33
2022/03/21 09:20:06;;;;;;;19.77;15.53;;;10.80;99.90;;;;;;5015823;28;20202;-32
2022/03/21 09:22:32;;;;;;;22.03;15.57;;;11.00;99.90;;;;;;5033744;28;20232;-33
2022/03/21 09:24:58;;;;;;;21.50;15.90;;;11.10;99.90;;;;;;5033795;28;20167;-33
2022/03/21 09:27:24;;;;;;;22.53;15.77;;;11.20;99.90;;;;;;5016056;28;20198;-33
2022/03/21 09:29:50;;;;;;;21.03;15.23;;;11.30;99.90;;;;;;5015503;28;20230;-32
2022/03/21 09:32:17;;;;;;;20.97;15.20;;;11.20;99.90;;;;;;5032504;28;20186;-33
2022/03/21 09:34:44;;;;;;;20.07;15.53;;;11.10;99.90;;;;;;5032346;28;20210;-33
2022/03/21 09:37:10;;;;;;;21.97;16.67;;;11.30;99.90;;;;;;5015654;28;20174;-33
2022/03/21 09:39:36;;;;;;;23.33;15.93;;;11.40;99.90;;;;;;5031722;28;20198;-33
2022/03/21 09:42:03;;;;;;;22.07;16.53;;;11.30;99.90;;;;;;5031578;28;20178;-33
2022/03/21 09:44:29;;;;;;;20.93;16.87;;;11.40;99.90;;;;;;5032451;28;20178;-33
2022/03/21 09:46:55;;;;;;;21.23;16.70;;;11.40;99.90;;;;;;5033520;28;20184;-33
2022/03/21 09:49:25;;;;;;;20.87;15.70;;;11.50;99.90;;;;;;5033295;28;20200;-33
2022/03/21 09:51:54;;;;;;;20.53;16.13;;;11.60;99.90;;;;;;5031700;28;20195;-32
2022/03/21 09:54:20;;;;;;;21.07;15.63;;;11.70;99.90;;;;;;5033109;28;20219;-32
2022/03/21 09:56:47;;;;;;;24.10;16.87;;;11.70;99.90;;;;;;5031797;28;20188;-32
2022/03/21 09:59:13;;;;;;;20.67;16.00;;;11.80;99.90;;;;;;5015045;28;20199;-33
2022/03/21 10:01:38;;;;;;;21.00;15.93;;;11.90;99.90;;;;;;5031942;28;20184;-32
2022/03/21 10:04:06;;;;;;;21.23;16.70;;;12.00;99.90;;;;;;5031739;28;20187;-33
2022/03/21 10:06:37;;;;;;;23.97;16.50;;;12.20;99.90;;;;;;5032406;28;20262;-32
2022/03/21 10:09:06;;;;;;;18.40;15.40;;;12.30;99.90;;;;;;5031062;28;20211;-32
2022/03/21 10:11:32;;;;;;;17.97;15.43;;;12.50;99.90;;;;;;5014639;28;20188;-32
2022/03/21 10:14:00;;;;;;;21.77;15.83;;;12.80;99.90;;;;;;5015217;28;20659;-33
2022/03/21 10:16:26;;;;;;;20.53;15.33;;;13.00;99.90;;;;;;5031830;28;20177;-33
2022/03/21 10:18:57;;;;;;;22.30;15.97;;;13.10;99.90;;;;;;5031419;28;20271;-32
2022/03/21 10:21:25;;;;;;;21.17;15.33;;;13.20;99.50;;;;;;5032895;28;20185;-33
2022/03/21 10:24:07;;;;;;;18.23;15.30;;;13.20;99.20;;;;;;5014683;28;20208;-33
2022/03/21 10:26:40;;;;;;;19.57;15.43;;;13.20;99.00;;;;;;5014860;28;20213;-33
2022/03/21 10:29:10;;;;;;;20.00;15.63;;;13.10;98.50;;;;;;5030783;28;20244;-33
2022/03/21 10:31:52;;;;;;;18.87;15.00;;;13.10;97.80;;;;;;5031297;28;20223;-33
2022/03/21 10:34:21;;;;;;;22.17;16.03;;;13.10;98.00;;;;;;5030733;28;20232;-33
2022/03/21 10:37:06;;;;;;;20.00;15.70;;;13.20;98.30;;;;;;5014793;28;20182;-33
2022/03/21 10:39:34;;;;;;;20.00;15.07;;;13.40;98.70;;;;;;5014080;28;20226;-33
2022/03/21 10:42:06;;;;;;;18.43;14.53;;;13.60;96.60;;;;;;5014585;28;20190;-32
2022/03/21 10:44:33;;;;;;;21.13;15.73;;;13.80;96.20;;;;;;5014005;28;20187;-33
2022/03/21 10:47:04;;;;;;;19.50;15.50;;;13.90;98.20;;;;;;5014599;28;20284;-33
2022/03/21 10:49:38;;;;;;;24.60;17.80;;;14.10;97.50;;;;;;5030539;28;20232;-33
2022/03/21 10:52:06;;;;;;;16.90;14.23;;;14.30;96.90;;;;;;5014216;28;20182;-33
2022/03/21 10:54:45;;;;;;;19.87;14.57;;;14.50;96.30;;;;;;5030743;28;20217;-33
2022/03/21 10:57:36;;;;;;;19.50;13.77;;;14.50;97.50;;;;;;5030433;28;20401;-34
2022/03/21 11:00:14;;;;;;;20.20;16.27;;;14.70;96.90;;;;;;5030428;28;20222;-33
2022/03/21 11:02:57;;;;;;;21.20;15.13;;;14.90;97.00;;;;;;5013979;28;20594;-33
2022/03/21 11:05:29;;;;;;;19.30;15.63;;;15.20;96.60;;;;;;5031854;28;20175;-33
2022/03/21 11:07:56;;;;;;;22.23;15.33;;;15.40;96.50;;;;;;5030605;28;20194;-33
2022/03/21 11:10:24;;;;;;;18.47;14.70;;;15.60;97.10;;;;;;5013667;28;20214;-34
2022/03/21 11:12:50;;;;;;;18.87;14.97;;;15.80;97.10;;;;;;5030477;28;20265;-34
2022/03/21 11:15:16;;;;;;;19.03;15.33;;;16.00;96.30;;;;;;5030628;28;20175;-33
2022/03/21 11:17:44;;;;;;;20.10;15.30;;;16.20;94.90;;;;;;5030075;28;20182;-33
2022/03/21 11:20:11;;;;;;;20.20;14.57;;;16.20;94.20;;;;;;5013389;28;20292;-34
2022/03/21 11:22:38;;;;;;;19.20;15.33;;;16.40;94.70;;;;;;5030274;28;20175;-33
2022/03/21 11:25:06;;;;;;;19.87;15.03;;;16.50;94.00;;;;;;5030349;28;20248;-33
2022/03/21 11:27:50;;;;;;;17.43;14.47;;;16.50;94.10;;;;;;5013311;28;20186;-34
2022/03/21 11:30:48;;;;;;;18.67;15.27;;;16.70;94.80;;;;;;5047409;23;20298;-39
2022/03/21 11:33:38;;;;;;;19.13;14.63;;;16.80;94.00;;;;;;5049510;28;20208;-41
2022/03/21 11:36:12;;;;;;;19.60;14.77;;;16.80;93.90;;;;;;5033593;28;20299;-39
2022/03/21 11:38:47;;;;;;;19.33;14.80;;;17.00;94.20;;;;;;5033099;28;20646;-39
2022/03/21 11:41:22;;;;;;;19.17;15.18;;;17.00;93.40;;;;;;5049890;28;20173;-39
2022/03/21 11:44:06;;;;;;;18.88;14.75;;;17.20;92.80;;;;;;5027913;28;20207;-39
2022/03/21 11:46:34;;;;;;;19.70;14.50;;;17.40;93.60;;;;;;5026032;28;20190;-38
2022/03/21 11:49:02;;;;;;;18.00;14.35;;;17.50;92.90;;;;;;5035360;28;20194;-44
2022/03/21 11:51:41;;;;;;;21.17;14.68;;;17.70;92.10;;;;;;5023144;28;20181;-41
2022/03/21 11:54:36;;;;;;;19.88;14.00;;;17.60;91.10;;;;;;5039949;28;20205;-42
2022/03/21 11:57:23;;;;;;;19.00;13.85;;;17.80;91.10;;;;;;5037851;28;20171;-41
2022/03/21 11:59:52;;;;;;;16.48;13.60;;;17.90;91.00;;;;;;5040126;28;20198;-39
2022/03/21 12:02:18;;;;;;;15.77;13.80;;;18.00;90.70;;;;;;5025163;28;20170;-39
2022/03/21 12:04:57;;;;;;;17.60;13.85;;;17.80;90.70;;;;;;5048528;28;20186;-40
2022/03/21 12:07:23;;;;;;;18.98;14.32;;;17.80;91.70;;;;;;5049680;28;20177;-44
2022/03/21 12:09:51;;;;;;;18.80;14.02;;;18.00;90.60;;;;;;5032756;28;20205;-40
2022/03/21 12:12:22;;;;;;;20.17;14.60;;;18.20;90.60;;;;;;5049497;28;20711;-40
2022/03/21 12:14:54;;;;;;;19.35;14.65;;;18.40;90.50;;;;;;5032726;28;20209;-38
2022/03/21 12:17:26;;;;;;;16.75;13.18;;;18.60;89.80;;;;;;5049466;28;20186;-37
2022/03/21 12:19:54;;;;;;;18.48;14.32;;;18.70;90.50;;;;;;5032648;28;20198;-37
2022/03/21 12:22:36;;;;;;;17.40;14.10;;;18.70;88.50;;;;;;5041154;28;20207;-36
2022/03/21 12:25:20;;;;;;;15.98;13.45;;;18.80;90.00;;;;;;5040032;28;20175;-39
2022/03/21 12:28:16;;;;;;;17.63;13.32;;;19.00;88.60;;;;;;5023421;28;20257;-37
2022/03/21 12:30:42;;;;;;;18.25;14.60;;;18.90;88.40;;;;;;5026759;28;20225;-38
2022/03/21 12:33:14;;;;;;;19.85;14.18;;;19.00;86.30;;;;;;5041996;28;20309;-38
2022/03/21 12:35:42;;;;;;;17.98;13.18;;;19.00;86.60;;;;;;5036903;28;20232;-36
2022/03/21 12:38:22;;;;;;;17.10;13.10;;;19.10;85.30;;;;;;5033436;28;20178;-39
2022/03/21 12:40:50;;;;;;;16.90;13.27;;;18.80;81.80;;;;;;5016602;28;20182;-36
2022/03/21 12:43:19;;;;;;;17.23;13.48;;;18.90;84.20;;;;;;5032848;28;20186;-39
2022/03/21 12:45:45;;;;;;;17.10;13.63;;;19.10;83.00;;;;;;5034713;28;20186;-41
2022/03/21 12:48:17;;;;;;;18.55;13.95;;;19.20;84.30;;;;;;5033362;28;20194;-38
2022/03/21 12:50:49;;;;;;;18.75;13.35;;;19.20;81.20;;;;;;5032910;28;20203;-36
2022/03/21 12:53:21;;;;;;;17.05;12.52;;;19.30;82.20;;;;;;5016519;28;20293;-36
2022/03/21 12:56:03;;;;;;;18.00;12.80;;;19.50;80.90;;;;;;5032851;28;20293;-39